createdAt,value
2022-10-18T00:00:33.238Z,14.89
2022-10-18T00:01:33.556Z,14.78
2022-10-18T00:02:34.882Z,14.78
2022-10-18T00:03:35.045Z,14.74
2022-10-18T00:04:36.043Z,14.62
2022-10-18T00:05:37.251Z,14.66
2022-10-18T00:06:43.506Z,14.58
2022-10-18T00:07:39.337Z,14.56
2022-10-18T00:08:39.679Z,14.45
2022-10-18T00:09:40.615Z,14.49
2022-10-18T00:10:41.902Z,14.53
2022-10-18T00:11:42.522Z,14.43
2022-10-18T00:12:43.327Z,14.41
2022-10-18T00:13:43.556Z,14.36
2022-10-18T00:14:44.748Z,14.45
2022-10-18T00:15:44.657Z,14.43
2022-10-18T00:16:45.580Z,14.41
2022-10-18T00:17:45.810Z,14.49
2022-10-18T00:18:45.721Z,14.45
2022-10-18T00:19:46.641Z,14.43
2022-10-18T00:20:47.334Z,14.48
2022-10-18T00:21:47.654Z,14.41
2022-10-18T00:22:47.568Z,14.44
2022-10-18T00:23:48.478Z,14.45
2022-10-18T00:24:48.682Z,14.45
2022-10-18T00:25:48.910Z,14.48
2022-10-18T00:26:50.141Z,14.45
2022-10-18T00:27:51.056Z,14.43
2022-10-18T00:28:51.491Z,14.49
2022-10-18T00:29:51.582Z,14.45
2022-10-18T00:30:52.098Z,14.44
2022-10-18T00:31:52.747Z,14.41
2022-10-18T00:32:53.248Z,14.4
2022-10-18T00:33:53.888Z,14.44
2022-10-18T00:34:54.205Z,14.3
2022-10-18T00:35:55.433Z,14.33
2022-10-18T00:36:56.055Z,14.33
2022-10-18T00:37:56.395Z,14.26
2022-10-18T00:38:57.008Z,14.31
2022-10-18T00:39:58.149Z,14.25
2022-10-18T00:40:57.480Z,14.3
2022-10-18T00:41:58.697Z,14.3
2022-10-18T00:42:58.888Z,14.3
2022-10-18T00:43:59.808Z,14.28
2022-10-18T00:45:00.744Z,14.34
2022-10-18T00:46:00.934Z,14.41
2022-10-18T00:47:01.567Z,14.33
2022-10-18T00:48:02.781Z,14.34
2022-10-18T00:49:03.973Z,14.31
2022-10-18T00:50:04.870Z,14.25
2022-10-18T00:51:05.587Z,14.33
2022-10-18T00:52:06.199Z,14.3
2022-10-18T00:53:06.814Z,14.31
2022-10-18T00:54:06.791Z,14.48
2022-10-18T00:55:07.746Z,14.4
2022-10-18T00:56:07.955Z,14.34
2022-10-18T00:57:08.272Z,14.36
2022-10-18T00:58:08.897Z,14.37
2022-10-18T00:59:10.095Z,14.38
2022-10-18T01:00:10.745Z,14.36
2022-10-18T01:01:11.607Z,14.43
2022-10-18T01:02:12.555Z,14.44
2022-10-18T01:03:13.083Z,14.4
2022-10-18T01:04:14.005Z,14.36
2022-10-18T01:05:13.959Z,14.28
2022-10-18T01:06:14.593Z,14.33
2022-10-18T01:07:15.199Z,14.34
2022-10-18T01:08:15.511Z,14.34
2022-10-18T01:09:16.048Z,14.3
2022-10-18T01:10:16.283Z,14.36
2022-10-18T01:11:17.277Z,14.41
2022-10-18T01:12:17.773Z,14.3
2022-10-18T01:13:24.790Z,14.28
2022-10-18T01:14:18.801Z,14.26
2022-10-18T01:15:19.119Z,14.36
2022-10-18T01:16:20.731Z,14.33
2022-10-18T01:17:21.348Z,14.45
2022-10-18T01:18:22.477Z,14.43
2022-10-18T01:19:23.101Z,14.38
2022-10-18T01:20:23.310Z,14.41
2022-10-18T01:21:23.732Z,14.45
2022-10-18T01:22:24.670Z,14.44
2022-10-18T01:23:25.166Z,14.36
2022-10-18T01:24:25.787Z,14.33
2022-10-18T01:25:26.042Z,14.33
2022-10-18T01:26:26.228Z,14.34
2022-10-18T01:27:26.871Z,14.34
2022-10-18T01:28:27.545Z,14.2
2022-10-18T01:29:27.474Z,14.23
2022-10-18T01:30:28.389Z,14.25
2022-10-18T01:31:29.682Z,14.2
2022-10-18T01:32:30.274Z,14.11
2022-10-18T01:33:30.926Z,14.12
2022-10-18T01:34:31.825Z,14.07
2022-10-18T01:35:31.734Z,14.07
2022-10-18T01:36:32.635Z,13.98
2022-10-18T01:37:34.173Z,13.87
2022-10-18T01:38:33.508Z,13.82
2022-10-18T01:39:33.390Z,13.79
2022-10-18T01:40:33.337Z,13.78
2022-10-18T01:41:33.618Z,13.76
2022-10-18T01:42:34.540Z,13.76
2022-10-18T01:43:35.453Z,13.76
2022-10-18T01:44:35.372Z,13.68
2022-10-18T01:45:35.861Z,13.67
2022-10-18T01:46:36.754Z,13.68
2022-10-18T01:47:37.881Z,13.65
2022-10-18T01:48:38.093Z,13.71
2022-10-18T01:49:38.289Z,13.71
2022-10-18T01:50:39.208Z,13.7
2022-10-18T01:51:39.215Z,13.76
2022-10-18T01:52:40.335Z,13.78
2022-10-18T01:53:40.560Z,13.76
2022-10-18T01:54:40.476Z,13.79
2022-10-18T01:55:41.927Z,13.93
2022-10-18T01:56:42.142Z,13.82
2022-10-18T01:57:42.355Z,13.83
2022-10-18T01:58:43.247Z,13.85
2022-10-18T01:59:43.164Z,13.87
2022-10-18T02:00:43.480Z,13.8
2022-10-18T02:01:44.485Z,13.82
2022-10-18T02:02:45.380Z,13.91
2022-10-18T02:03:46.311Z,13.85
2022-10-18T02:04:46.927Z,13.8
2022-10-18T02:05:48.142Z,13.86
2022-10-18T02:06:48.868Z,13.83
2022-10-18T02:08:19.155Z,13.87
2022-10-18T02:08:50.027Z,13.8
2022-10-18T02:09:50.645Z,13.85
2022-10-18T02:10:51.344Z,13.8
2022-10-18T02:11:52.354Z,13.79
2022-10-18T02:12:53.270Z,13.78
2022-10-18T02:13:53.610Z,13.76
2022-10-18T02:14:54.522Z,13.73
2022-10-18T02:15:55.022Z,13.75
2022-10-18T02:16:54.937Z,13.75
2022-10-18T02:17:55.129Z,13.75
2022-10-18T02:18:55.357Z,13.67
2022-10-18T02:19:55.993Z,13.58
2022-10-18T02:20:56.610Z,13.55
2022-10-18T02:21:57.040Z,13.57
2022-10-18T02:22:57.535Z,13.54
2022-10-18T02:23:57.445Z,13.52
2022-10-18T02:24:58.641Z,13.46
2022-10-18T02:25:58.872Z,13.49
2022-10-18T02:26:59.079Z,13.43
2022-10-18T02:27:59.572Z,13.3
2022-10-18T02:28:59.636Z,13.39
2022-10-18T02:30:00.144Z,13.33
2022-10-18T02:31:00.336Z,13.28
2022-10-18T02:32:00.477Z,13.23
2022-10-18T02:33:01.391Z,13.26
2022-10-18T02:34:02.318Z,13.28
2022-10-18T02:35:03.231Z,13.27
2022-10-18T02:36:04.122Z,13.21
2022-10-18T02:37:05.044Z,13.23
2022-10-18T02:38:05.350Z,13.37
2022-10-18T02:39:05.279Z,13.36
2022-10-18T02:40:05.873Z,13.21
2022-10-18T02:41:06.811Z,13.31
2022-10-18T02:42:07.180Z,13.36
2022-10-18T02:43:08.113Z,13.37
2022-10-18T02:44:09.330Z,13.39
2022-10-18T02:45:09.225Z,13.26
2022-10-18T02:46:09.435Z,13.2
2022-10-18T02:47:10.130Z,13.28
2022-10-18T02:48:11.340Z,13.26
2022-10-18T02:49:11.844Z,13.33
2022-10-18T02:50:12.182Z,13.37
2022-10-18T02:51:12.798Z,13.27
2022-10-18T02:52:13.792Z,13.37
2022-10-18T02:53:13.985Z,13.33
2022-10-18T02:54:14.601Z,13.46
2022-10-18T02:55:15.977Z,13.46
2022-10-18T02:56:16.304Z,13.45
2022-10-18T02:57:16.950Z,13.37
2022-10-18T02:58:17.300Z,13.33
2022-10-18T02:59:17.941Z,13.43
2022-10-18T03:00:18.858Z,13.39
2022-10-18T03:01:19.044Z,13.36
2022-10-18T03:02:19.456Z,13.4
2022-10-18T03:03:19.793Z,13.36
2022-10-18T03:04:20.906Z,13.36
2022-10-18T03:05:21.101Z,13.3
2022-10-18T03:06:21.592Z,13.33
2022-10-18T03:07:22.518Z,13.39
2022-10-18T03:08:22.924Z,13.33
2022-10-18T03:09:24.171Z,13.4
2022-10-18T03:10:25.508Z,13.31
2022-10-18T03:11:25.464Z,13.45
2022-10-18T03:12:26.167Z,13.43
2022-10-18T03:13:27.323Z,13.42
2022-10-18T03:14:26.956Z,13.45
2022-10-18T03:15:28.152Z,13.42
2022-10-18T03:16:28.082Z,13.5
2022-10-18T03:17:28.757Z,13.52
2022-10-18T03:18:29.199Z,13.52
2022-10-18T03:19:29.420Z,13.6
2022-10-18T03:20:30.338Z,13.6
2022-10-18T03:21:30.535Z,13.58
2022-10-18T03:22:30.739Z,13.64
2022-10-18T03:23:30.656Z,13.62
2022-10-18T03:24:31.308Z,13.68
2022-10-18T03:25:31.922Z,13.7
2022-10-18T03:26:32.970Z,13.7
2022-10-18T03:27:33.789Z,13.67
2022-10-18T03:28:33.257Z,13.78
2022-10-18T03:29:33.596Z,13.68
2022-10-18T03:30:33.506Z,13.75
2022-10-18T03:31:34.707Z,13.73
2022-10-18T03:32:35.834Z,13.67
2022-10-18T03:33:35.462Z,13.71
2022-10-18T03:34:36.721Z,13.71
2022-10-18T03:35:37.637Z,13.73
2022-10-18T03:36:38.252Z,13.65
2022-10-18T03:37:38.580Z,13.68
2022-10-18T03:38:39.473Z,13.62
2022-10-18T03:39:39.791Z,13.64
2022-10-18T03:40:40.708Z,13.6
2022-10-18T03:41:41.022Z,13.55
2022-10-18T03:42:42.045Z,13.58
2022-10-18T03:43:42.663Z,13.55
2022-10-18T03:44:43.604Z,13.52
2022-10-18T03:45:44.791Z,13.52
2022-10-18T03:46:44.705Z,13.58
2022-10-18T03:47:45.621Z,13.5
2022-10-18T03:48:46.518Z,13.46
2022-10-18T03:49:47.100Z,13.43
2022-10-18T03:50:47.102Z,13.45
2022-10-18T03:51:47.993Z,13.47
2022-10-18T03:52:49.041Z,13.47
2022-10-18T03:53:49.376Z,13.46
2022-10-18T03:54:50.560Z,13.47
2022-10-18T03:55:50.755Z,13.46
2022-10-18T03:56:51.392Z,13.42
2022-10-18T03:57:51.364Z,13.4
2022-10-18T03:58:52.316Z,13.42
2022-10-18T03:59:52.519Z,13.37
2022-10-18T04:00:52.724Z,13.37
2022-10-18T04:01:53.823Z,13.43
2022-10-18T04:02:59.058Z,13.45
2022-10-18T04:03:54.682Z,13.4
2022-10-18T04:04:55.303Z,13.4
2022-10-18T04:05:56.193Z,13.28
2022-10-18T04:06:56.516Z,13.45
2022-10-18T04:07:57.441Z,13.45
2022-10-18T04:08:57.357Z,13.4
2022-10-18T04:09:58.313Z,13.37
2022-10-18T04:10:58.800Z,13.37
2022-10-18T04:11:59.034Z,13.31
2022-10-18T04:13:00.319Z,13.33
2022-10-18T04:14:00.935Z,13.36
2022-10-18T04:15:01.195Z,13.31
2022-10-18T04:16:02.393Z,13.31
2022-10-18T04:17:02.596Z,13.33
2022-10-18T04:18:03.518Z,13.33
2022-10-18T04:19:04.188Z,13.26
2022-10-18T04:20:05.135Z,13.23
2022-10-18T04:21:06.048Z,13.23
2022-10-18T04:22:06.660Z,13.36
2022-10-18T04:23:08.073Z,13.42
2022-10-18T04:24:08.386Z,13.27
2022-10-18T04:25:09.598Z,13.4
2022-10-18T04:26:09.811Z,13.33
2022-10-18T04:27:10.059Z,13.24
2022-10-18T04:28:10.361Z,13.36
2022-10-18T04:29:11.889Z,13.36
2022-10-18T04:30:11.606Z,13.28
2022-10-18T04:31:12.097Z,13.36
2022-10-18T04:32:12.584Z,13.28
2022-10-18T04:33:13.315Z,13.27
2022-10-18T04:34:14.542Z,13.36
2022-10-18T04:35:15.195Z,13.4
2022-10-18T04:36:15.415Z,13.28
2022-10-18T04:37:16.326Z,13.23
2022-10-18T04:38:17.557Z,13.24
2022-10-18T04:39:17.472Z,13.37
2022-10-18T04:40:17.966Z,13.2
2022-10-18T04:41:18.180Z,13.27
2022-10-18T04:42:18.188Z,13.26
2022-10-18T04:43:17.915Z,13.33
2022-10-18T04:44:18.843Z,13.33
2022-10-18T04:45:19.484Z,13.33
2022-10-18T04:46:20.404Z,13.31
2022-10-18T04:47:20.755Z,13.46
2022-10-18T04:48:21.952Z,13.46
2022-10-18T04:49:23.153Z,13.47
2022-10-18T04:50:23.661Z,13.57
2022-10-18T04:51:23.577Z,13.5
2022-10-18T04:52:25.065Z,13.6
2022-10-18T04:53:26.071Z,13.58
2022-10-18T04:54:29.864Z,13.6
2022-10-18T04:55:27.505Z,13.58
2022-10-18T04:56:28.113Z,13.58
2022-10-18T04:57:28.912Z,13.57
2022-10-18T04:58:29.456Z,13.57
2022-10-18T04:59:30.374Z,13.55
2022-10-18T05:00:32.325Z,13.57
2022-10-18T05:01:32.186Z,13.58
2022-10-18T05:02:32.951Z,13.54
2022-10-18T05:03:33.127Z,13.58
2022-10-18T05:04:33.164Z,13.58
2022-10-18T05:06:03.790Z,13.49
2022-10-18T05:06:35.167Z,13.55
2022-10-18T05:07:35.799Z,13.54
2022-10-18T05:08:37.025Z,13.54
2022-10-18T05:09:37.244Z,13.55
2022-10-18T05:10:37.838Z,13.55
2022-10-18T05:11:38.329Z,13.57
2022-10-18T05:12:39.050Z,13.55
2022-10-18T05:13:39.357Z,13.55
2022-10-18T05:14:39.268Z,13.61
2022-10-18T05:15:40.187Z,13.6
2022-10-18T05:16:40.408Z,13.58
2022-10-18T05:17:40.428Z,13.6
2022-10-18T05:18:40.621Z,13.64
2022-10-18T05:19:41.246Z,13.6
2022-10-18T05:20:42.500Z,13.6
2022-10-18T05:21:42.714Z,13.6
2022-10-18T05:22:43.310Z,13.54
2022-10-18T05:23:43.429Z,13.58
2022-10-18T05:24:44.046Z,13.52
2022-10-18T05:25:43.932Z,13.58
2022-10-18T05:26:44.825Z,13.57
2022-10-18T05:27:45.780Z,13.57
2022-10-18T05:28:47.168Z,13.52
2022-10-18T05:29:47.263Z,13.52
2022-10-18T05:30:47.920Z,13.54
2022-10-18T05:31:48.139Z,13.54
2022-10-18T05:32:49.053Z,13.58
2022-10-18T05:33:50.049Z,13.54
2022-10-18T05:34:50.625Z,13.61
2022-10-18T05:35:50.829Z,13.54
2022-10-18T05:36:51.432Z,13.64
2022-10-18T05:37:52.029Z,13.65
2022-10-18T05:38:52.658Z,13.65
2022-10-18T05:39:53.746Z,13.64
2022-10-18T05:40:54.071Z,13.7
2022-10-18T05:41:54.990Z,13.7
2022-10-18T05:42:55.229Z,13.71
2022-10-18T05:43:55.550Z,13.75
2022-10-18T05:44:56.491Z,13.75
2022-10-18T05:45:57.106Z,13.86
2022-10-18T05:46:57.551Z,13.79
2022-10-18T05:47:58.451Z,13.87
2022-10-18T05:48:58.364Z,13.86
2022-10-18T05:49:58.998Z,13.85
2022-10-18T05:50:59.492Z,14.01
2022-10-18T05:51:59.686Z,13.91
2022-10-18T05:53:24.655Z,14.08
2022-10-18T05:54:20.547Z,14.04
2022-10-18T05:55:21.163Z,14.12
2022-10-18T05:56:21.779Z,14.07
2022-10-18T05:57:22.851Z,14.12
2022-10-18T05:58:23.583Z,14.11
2022-10-18T05:59:24.069Z,14.15
2022-10-18T06:00:23.805Z,14.16
2022-10-18T06:01:25.016Z,14.19
2022-10-18T06:02:25.746Z,14.18
2022-10-18T06:03:25.757Z,14.19
2022-10-18T06:04:25.593Z,14.25
2022-10-18T06:05:26.030Z,14.2
2022-10-18T06:06:27.122Z,14.19
2022-10-18T06:07:26.736Z,14.16
2022-10-18T06:08:27.722Z,14.16
2022-10-18T06:09:28.701Z,14.2
2022-10-18T06:10:29.629Z,14.19
2022-10-18T06:11:30.590Z,14.22
2022-10-18T06:12:31.809Z,14.15
2022-10-18T06:13:33.896Z,14.15
2022-10-18T06:14:32.000Z,14.2
2022-10-18T06:15:33.189Z,14.16
2022-10-18T06:17:39.157Z,14.22
2022-10-18T06:18:35.046Z,14.16
2022-10-18T06:19:36.036Z,14.16
2022-10-18T06:20:36.932Z,14.15
2022-10-18T06:21:36.866Z,14.19
2022-10-18T06:22:37.792Z,14.2
2022-10-18T06:23:37.829Z,14.16
2022-10-18T06:24:38.562Z,14.18
2022-10-18T06:25:38.757Z,14.31
2022-10-18T06:26:38.963Z,14.23
2022-10-18T06:27:40.229Z,14.31
2022-10-18T06:28:40.977Z,14.4
2022-10-18T06:29:41.148Z,14.34
2022-10-18T06:30:41.745Z,14.38
2022-10-18T06:31:42.385Z,14.4
2022-10-18T06:32:42.606Z,14.34
2022-10-18T06:33:43.830Z,14.48
2022-10-18T06:34:44.280Z,14.43
2022-10-18T06:35:44.540Z,14.33
2022-10-18T06:36:45.042Z,14.44
2022-10-18T06:37:45.784Z,14.45
2022-10-18T06:38:45.980Z,14.41
2022-10-18T06:39:47.351Z,14.45
2022-10-18T06:40:47.283Z,14.56
2022-10-18T06:41:48.213Z,14.56
2022-10-18T06:43:19.852Z,14.67
2022-10-18T06:43:49.738Z,14.63
2022-10-18T06:44:49.812Z,14.67
2022-10-18T06:45:50.313Z,14.63
2022-10-18T06:46:50.249Z,14.73
2022-10-18T06:47:51.172Z,14.71
2022-10-18T06:48:52.109Z,14.82
2022-10-18T06:49:53.005Z,14.89
2022-10-18T06:50:53.926Z,14.92
2022-10-18T06:51:54.714Z,14.93
2022-10-18T06:52:54.963Z,14.97
2022-10-18T06:54:19.392Z,15.05
2022-10-18T06:55:09.891Z,14.99
2022-10-18T06:56:07.810Z,15.07
2022-10-18T06:57:08.739Z,15.11
2022-10-18T06:58:09.672Z,15.07
2022-10-18T06:59:09.605Z,15.18
2022-10-18T07:00:10.159Z,15.18
2022-10-18T07:01:10.290Z,15.17
2022-10-18T07:02:10.778Z,15.12
2022-10-18T07:03:11.985Z,15.15
2022-10-18T07:04:12.006Z,15.44
2022-10-18T07:05:12.529Z,15.39
2022-10-18T07:06:13.832Z,15.41
2022-10-18T07:07:14.795Z,15.47
2022-10-18T07:08:16.003Z,15.43
2022-10-18T07:09:15.914Z,15.47
2022-10-18T07:10:18.885Z,15.47
2022-10-18T07:11:17.258Z,15.44
2022-10-18T07:12:17.491Z,15.45
2022-10-18T07:13:38.105Z,15.39
2022-10-18T07:14:28.978Z,15.41
2022-10-18T07:15:20.303Z,15.51
2022-10-18T07:16:24.303Z,15.3
2022-10-18T07:17:20.921Z,15.44
2022-10-18T07:18:21.739Z,15.41
2022-10-18T07:19:22.094Z,15.5
2022-10-18T07:20:23.361Z,15.47
2022-10-18T07:21:22.987Z,15.55
2022-10-18T07:22:30.435Z,15.63
2022-10-18T07:23:25.140Z,15.72
2022-10-18T07:24:25.524Z,15.7
2022-10-18T07:25:30.598Z,15.7
2022-10-18T07:26:26.635Z,15.87
2022-10-18T07:27:27.557Z,15.88
2022-10-18T07:28:27.775Z,15.94
2022-10-18T07:29:28.368Z,16.06
2022-10-18T07:30:27.992Z,16.17
2022-10-18T07:31:28.727Z,16.25
2022-10-18T07:32:29.348Z,16.34
2022-10-18T07:33:30.618Z,16.51
2022-10-18T07:34:31.253Z,16.61
2022-10-18T07:35:31.770Z,16.82
2022-10-18T07:36:32.426Z,16.98
2022-10-18T07:37:36.723Z,17.19
2022-10-18T07:38:33.076Z,17.28
2022-10-18T07:39:33.698Z,17.39
2022-10-18T07:40:33.920Z,17.53
2022-10-18T07:41:33.861Z,17.75
2022-10-18T07:42:34.797Z,17.87
2022-10-18T07:43:36.031Z,18.12
2022-10-18T07:44:36.416Z,18.24
2022-10-18T07:46:38.535Z,18.48
2022-10-18T07:47:42.333Z,18.39
2022-10-18T07:48:39.719Z,18.51
2022-10-18T07:49:40.029Z,18.58
2022-10-18T07:50:41.349Z,18.67
2022-10-18T07:51:41.566Z,18.68
2022-10-18T07:52:42.080Z,18.7
2022-10-18T07:53:42.007Z,18.71
2022-10-18T07:54:42.398Z,18.74
2022-10-18T07:55:42.991Z,18.79
2022-10-18T07:56:43.493Z,18.89
2022-10-18T07:57:44.124Z,18.97
2022-10-18T07:58:44.739Z,19.04
2022-10-18T07:59:45.714Z,19.07
2022-10-18T08:00:46.972Z,19.23
2022-10-18T08:01:47.240Z,19.38
2022-10-18T08:02:47.059Z,19.38
2022-10-18T08:03:47.968Z,19.53
2022-10-18T08:04:48.796Z,19.52
2022-10-18T08:05:49.038Z,19.72
2022-10-18T08:06:50.256Z,19.81
2022-10-18T08:07:51.207Z,20.08
2022-10-18T08:08:51.354Z,20.24
2022-10-18T08:09:51.580Z,20.24
2022-10-18T08:10:52.521Z,20.17
2022-10-18T08:11:53.724Z,20.12
2022-10-18T08:12:54.056Z,20.07
2022-10-18T08:13:54.330Z,20.18
2022-10-18T08:14:55.301Z,20.15
2022-10-18T08:15:56.302Z,20.03
2022-10-18T08:16:56.865Z,20.14
2022-10-18T08:17:56.559Z,20.21
2022-10-18T08:18:58.255Z,20.12
2022-10-18T08:20:31.484Z,20.03
2022-10-18T08:20:58.784Z,20.03
2022-10-18T08:21:59.734Z,20
2022-10-18T08:23:05.807Z,19.87
2022-10-18T08:24:02.049Z,19.81
2022-10-18T08:25:02.517Z,19.75
2022-10-18T08:26:03.173Z,19.74
2022-10-18T08:27:04.138Z,19.67
2022-10-18T08:28:04.372Z,19.66
2022-10-18T08:29:32.088Z,19.66
2022-10-18T08:30:05.335Z,19.77
2022-10-18T08:31:05.572Z,20.03
2022-10-18T08:32:05.752Z,20.4
2022-10-18T08:33:05.797Z,20.82
2022-10-18T08:34:07.031Z,21.26
2022-10-18T08:35:10.366Z,21.81
2022-10-18T08:36:07.535Z,22.16
2022-10-18T08:37:08.580Z,22.44
2022-10-18T08:38:11.442Z,22.59
2022-10-18T08:39:10.924Z,22.74
2022-10-18T08:40:11.864Z,22.83
2022-10-18T08:41:13.368Z,22.95
2022-10-18T08:42:13.087Z,22.86
2022-10-18T08:43:20.800Z,22.77
2022-10-18T08:44:14.862Z,22.73
2022-10-18T08:45:43.068Z,22.78
2022-10-18T08:46:31.908Z,22.8
2022-10-18T08:47:32.697Z,22.88
2022-10-18T08:48:33.428Z,22.67
2022-10-18T08:49:33.654Z,22.52
2022-10-18T08:50:34.659Z,22.38
2022-10-18T08:51:35.597Z,22.07
2022-10-18T08:52:36.424Z,21.85
2022-10-18T08:53:40.511Z,21.66
2022-10-18T08:54:36.912Z,21.68
2022-10-18T08:55:37.991Z,21.6
2022-10-18T08:56:38.080Z,21.6
2022-10-18T08:57:39.910Z,21.54
2022-10-18T08:58:39.839Z,21.53
2022-10-18T08:59:40.754Z,21.56
2022-10-18T09:00:40.984Z,21.51
2022-10-18T09:01:41.279Z,21.6
2022-10-18T09:02:42.283Z,21.59
2022-10-18T09:03:42.573Z,21.65
2022-10-18T09:04:42.883Z,21.51
2022-10-18T09:05:44.081Z,21.63
2022-10-18T09:06:44.428Z,21.59
2022-10-18T09:07:44.351Z,21.59
2022-10-18T09:08:45.560Z,21.6
2022-10-18T09:09:46.540Z,21.51
2022-10-18T09:10:46.637Z,21.54
2022-10-18T09:11:46.677Z,21.54
2022-10-18T09:12:46.965Z,21.54
2022-10-18T09:13:47.184Z,21.53
2022-10-18T09:14:47.682Z,21.45
2022-10-18T09:15:47.648Z,21.48
2022-10-18T09:16:48.126Z,21.44
2022-10-18T09:17:48.377Z,21.44
2022-10-18T09:18:49.301Z,21.65
2022-10-18T09:19:50.390Z,21.66
2022-10-18T09:20:49.826Z,21.63
2022-10-18T09:21:50.766Z,21.81
2022-10-18T09:22:51.615Z,21.89
2022-10-18T09:23:52.334Z,21.84
2022-10-18T09:24:53.669Z,22
2022-10-18T09:25:54.288Z,22.03
2022-10-18T09:26:54.633Z,22.16
2022-10-18T09:27:54.968Z,22.3
2022-10-18T09:28:55.547Z,22.4
2022-10-18T09:29:56.205Z,22.4
2022-10-18T09:30:59.983Z,22.34
2022-10-18T09:31:56.922Z,22.36
2022-10-18T09:32:57.299Z,22.34
2022-10-18T09:33:57.507Z,22.25
2022-10-18T09:34:58.432Z,22.25
2022-10-18T09:35:59.636Z,22.23
2022-10-18T09:36:59.954Z,22.26
2022-10-18T09:38:00.875Z,22.34
2022-10-18T09:39:05.876Z,22.36
2022-10-18T09:40:01.239Z,22.37
2022-10-18T09:41:01.810Z,22.47
2022-10-18T09:42:02.466Z,22.55
2022-10-18T09:43:03.682Z,22.61
2022-10-18T09:44:03.639Z,22.55
2022-10-18T09:45:04.549Z,22.55
2022-10-18T09:46:04.496Z,22.56
2022-10-18T09:47:05.544Z,22.59
2022-10-18T09:48:05.751Z,22.49
2022-10-18T09:49:06.969Z,22.58
2022-10-18T09:50:07.113Z,22.49
2022-10-18T09:51:07.739Z,22.44
2022-10-18T09:52:08.961Z,22.44
2022-10-18T09:53:08.894Z,22.36
2022-10-18T09:54:10.138Z,22.36
2022-10-18T09:55:11.044Z,22.37
2022-10-18T09:56:10.675Z,22.38
2022-10-18T09:57:11.850Z,22.34
2022-10-18T09:58:11.760Z,22.28
2022-10-18T09:59:12.694Z,22.37
2022-10-18T10:00:12.896Z,22.4
2022-10-18T10:01:13.097Z,22.28
2022-10-18T10:02:14.148Z,22.33
2022-10-18T10:03:14.722Z,22.36
2022-10-18T10:04:15.658Z,22.33
2022-10-18T10:05:16.744Z,22.41
2022-10-18T10:06:16.370Z,22.33
2022-10-18T10:07:17.384Z,22.36
2022-10-18T10:08:18.222Z,22.33
2022-10-18T10:09:18.881Z,22.37
2022-10-18T10:10:19.881Z,22.49
2022-10-18T10:11:20.377Z,22.47
2022-10-18T10:12:20.890Z,22.67
2022-10-18T10:13:21.597Z,22.7
2022-10-18T10:14:21.813Z,22.86
2022-10-18T10:15:22.315Z,22.86
2022-10-18T10:16:22.549Z,22.96
2022-10-18T10:17:23.010Z,22.95
2022-10-18T10:18:24.153Z,22.99
2022-10-18T10:19:24.653Z,23.14
2022-10-18T10:20:24.607Z,23.32
2022-10-18T10:21:24.553Z,23.34
2022-10-18T10:22:25.778Z,23.36
2022-10-18T10:23:26.430Z,23.32
2022-10-18T10:24:31.568Z,23.39
2022-10-18T10:25:27.761Z,23.39
2022-10-18T10:26:28.762Z,23.33
2022-10-18T10:27:28.990Z,23.37
2022-10-18T10:28:30.339Z,23.23
2022-10-18T10:29:49.933Z,23.26
2022-10-18T10:30:30.810Z,23.29
2022-10-18T10:31:31.434Z,23.34
2022-10-18T10:32:32.139Z,23.36
2022-10-18T10:33:32.382Z,23.37
2022-10-18T10:34:32.882Z,23.44
2022-10-18T10:35:55.003Z,23.52
2022-10-18T10:36:34.656Z,23.48
2022-10-18T10:37:36.371Z,23.63
2022-10-18T10:38:35.312Z,23.7
2022-10-18T10:39:35.915Z,23.77
2022-10-18T10:40:36.043Z,23.88
2022-10-18T10:41:36.707Z,24
2022-10-18T10:42:37.753Z,24.22
2022-10-18T10:43:43.989Z,24.46
2022-10-18T10:44:38.917Z,24.53
2022-10-18T10:45:39.845Z,24.69
2022-10-18T10:46:41.056Z,24.81
2022-10-18T10:47:42.130Z,24.99
2022-10-18T10:48:42.652Z,25.06
2022-10-18T10:49:47.127Z,25.01
2022-10-18T10:50:45.188Z,25.24
2022-10-18T10:51:44.280Z,25.24
2022-10-18T10:52:45.036Z,25.37
2022-10-18T10:53:45.535Z,25.54
2022-10-18T10:54:52.617Z,25.66
2022-10-18T10:55:45.214Z,25.68
2022-10-18T10:56:46.158Z,25.66
2022-10-18T10:57:47.204Z,25.66
2022-10-18T10:58:47.720Z,25.7
2022-10-18T10:59:48.066Z,25.8
2022-10-18T11:00:48.015Z,25.95
2022-10-18T11:01:49.536Z,26.04
2022-10-18T11:03:28.346Z,26.15
2022-10-18T11:03:50.369Z,26.08
2022-10-18T11:04:51.059Z,26.06
2022-10-18T11:05:51.563Z,25.98
2022-10-18T11:06:51.932Z,25.91
2022-10-18T11:07:52.090Z,25.88
2022-10-18T11:08:53.322Z,25.78
2022-10-18T11:09:54.605Z,25.58
2022-10-18T11:10:55.133Z,25.68
2022-10-18T11:11:55.090Z,25.67
2022-10-18T11:12:56.316Z,25.81
2022-10-18T11:14:26.789Z,25.8
2022-10-18T11:14:56.954Z,25.68
2022-10-18T11:15:58.175Z,25.62
2022-10-18T11:16:58.383Z,25.55
2022-10-18T11:17:58.552Z,25.54
2022-10-18T11:18:59.041Z,25.54
2022-10-18T11:19:59.291Z,25.54
2022-10-18T11:21:00.229Z,25.56
2022-10-18T11:22:01.449Z,25.66
2022-10-18T11:23:01.965Z,25.73
2022-10-18T11:24:02.935Z,25.76
2022-10-18T11:25:03.185Z,25.74
2022-10-18T11:26:03.575Z,25.81
2022-10-18T11:27:04.888Z,25.85
2022-10-18T11:28:06.200Z,25.85
2022-10-18T11:29:06.106Z,25.78
2022-10-18T11:30:06.373Z,25.89
2022-10-18T11:31:07.656Z,25.92
2022-10-18T11:32:07.582Z,25.96
2022-10-18T11:33:08.238Z,25.96
2022-10-18T11:34:16.319Z,26.13
2022-10-18T11:35:09.842Z,26.06
2022-10-18T11:36:10.491Z,26.16
2022-10-18T11:37:40.717Z,26.18
2022-10-18T11:38:29.361Z,26.11
2022-10-18T11:39:30.374Z,26.1
2022-10-18T11:40:30.340Z,26.15
2022-10-18T11:41:31.270Z,26.1
2022-10-18T11:42:34.052Z,26.22
2022-10-18T11:44:03.481Z,26.31
2022-10-18T11:44:33.876Z,26.34
2022-10-18T11:45:37.969Z,26.42
2022-10-18T11:46:34.910Z,26.46
2022-10-18T11:47:36.031Z,26.52
2022-10-18T11:48:36.029Z,26.66
2022-10-18T11:49:36.555Z,26.66
2022-10-18T11:50:36.800Z,26.56
2022-10-18T11:52:08.611Z,26.63
2022-10-18T11:52:38.020Z,26.63
2022-10-18T11:53:38.954Z,26.67
2022-10-18T11:54:42.276Z,26.63
2022-10-18T11:55:39.958Z,26.73
2022-10-18T11:56:40.469Z,26.74
2022-10-18T11:57:41.983Z,26.74
2022-10-18T11:58:41.725Z,26.85
2022-10-18T11:59:42.968Z,26.93
2022-10-18T12:00:43.204Z,26.81
2022-10-18T12:01:43.710Z,26.91
2022-10-18T12:02:43.855Z,26.96
2022-10-18T12:03:43.966Z,26.98
2022-10-18T12:05:24.414Z,27
2022-10-18T12:05:44.839Z,27.03
2022-10-18T12:06:45.494Z,27
2022-10-18T12:07:46.707Z,26.98
2022-10-18T12:08:47.118Z,27
2022-10-18T12:11:07.146Z,27.04
2022-10-18T12:11:56.150Z,27.01
2022-10-18T12:12:49.380Z,27.04
2022-10-18T12:13:50.611Z,27.03
2022-10-18T12:14:50.562Z,26.96
2022-10-18T12:15:51.490Z,26.91
2022-10-18T12:17:42.020Z,27.04
2022-10-18T12:18:03.188Z,27
2022-10-18T12:19:03.407Z,26.92
2022-10-18T12:20:03.180Z,26.96
2022-10-18T12:21:03.588Z,26.93
2022-10-18T12:22:04.427Z,26.93
2022-10-18T12:23:04.383Z,27.03
2022-10-18T12:24:05.302Z,27.1
2022-10-18T12:25:05.692Z,27.2
2022-10-18T12:26:06.662Z,27.22
2022-10-18T12:27:07.782Z,27.3
2022-10-18T12:28:08.412Z,27.4
2022-10-18T12:29:09.023Z,27.43
2022-10-18T12:30:10.046Z,27.43
2022-10-18T12:31:10.701Z,27.44
2022-10-18T12:32:10.627Z,27.44
2022-10-18T12:33:32.728Z,27.61
2022-10-18T12:34:11.654Z,27.6
2022-10-18T12:35:11.899Z,27.6
2022-10-18T12:36:12.565Z,27.66
2022-10-18T12:37:13.065Z,27.58
2022-10-18T12:38:14.017Z,27.44
2022-10-18T12:39:14.829Z,27.58
2022-10-18T12:40:22.116Z,27.53
2022-10-18T12:41:15.411Z,27.53
2022-10-18T12:42:16.101Z,27.57
2022-10-18T12:43:16.362Z,27.44
2022-10-18T12:44:17.314Z,27.45
2022-10-18T12:45:17.248Z,27.55
2022-10-18T12:46:20.074Z,27.6
2022-10-18T12:47:19.420Z,27.57
2022-10-18T12:48:20.780Z,27.47
2022-10-18T12:49:20.806Z,27.63
2022-10-18T12:50:21.740Z,27.52
2022-10-18T12:51:22.704Z,27.71
2022-10-18T12:52:22.965Z,27.73
2022-10-18T12:53:23.472Z,27.76
2022-10-18T12:54:24.126Z,27.76
2022-10-18T12:55:24.626Z,27.75
2022-10-18T12:56:28.829Z,27.78
2022-10-18T12:57:25.051Z,27.78
2022-10-18T12:58:25.442Z,27.83
2022-10-18T12:59:26.437Z,27.88
2022-10-18T13:00:27.079Z,27.81
2022-10-18T13:01:28.222Z,27.76
2022-10-18T13:02:28.719Z,27.72
2022-10-18T13:03:29.570Z,27.68
2022-10-18T13:04:30.243Z,27.58
2022-10-18T13:05:56.480Z,27.38
2022-10-18T13:06:30.935Z,27.3
2022-10-18T13:07:32.238Z,27.26
2022-10-18T13:08:31.388Z,27.29